sensor_id;sensor_type;location;lat;lon;timestamp;P1;durP1;ratioP1;P2;durP2;ratioP2
9334;SDS011;4706;41.844;26.082;2023-03-15T00:01:41;9.07;;;8.03;;
9334;SDS011;4706;41.844;26.082;2023-03-15T00:04:10;9.10;;;8.20;;
9334;SDS011;4706;41.844;26.082;2023-03-15T00:06:36;9.03;;;7.70;;
9334;SDS011;4706;41.844;26.082;2023-03-15T00:09:02;9.63;;;8.73;;
9334;SDS011;4706;41.844;26.082;2023-03-15T00:11:28;11.73;;;7.87;;
9334;SDS011;4706;41.844;26.082;2023-03-15T00:13:55;13.60;;;9.37;;
9334;SDS011;4706;41.844;26.082;2023-03-15T00:16:21;9.83;;;8.83;;
9334;SDS011;4706;41.844;26.082;2023-03-15T00:18:54;11.07;;;9.23;;
9334;SDS011;4706;41.844;26.082;2023-03-15T00:21:20;11.37;;;10.17;;
9334;SDS011;4706;41.844;26.082;2023-03-15T00:23:47;10.53;;;9.37;;
9334;SDS011;4706;41.844;26.082;2023-03-15T00:26:12;19.93;;;15.43;;
9334;SDS011;4706;41.844;26.082;2023-03-15T00:28:39;15.23;;;10.77;;
9334;SDS011;4706;41.844;26.082;2023-03-15T00:31:06;11.00;;;9.43;;
9334;SDS011;4706;41.844;26.082;2023-03-15T00:33:42;11.40;;;9.30;;
9334;SDS011;4706;41.844;26.082;2023-03-15T00:36:09;11.50;;;10.30;;
9334;SDS011;4706;41.844;26.082;2023-03-15T00:38:35;13.10;;;10.17;;
9334;SDS011;4706;41.844;26.082;2023-03-15T00:41:03;14.30;;;11.23;;
9334;SDS011;4706;41.844;26.082;2023-03-15T00:43:30;13.23;;;9.87;;
9334;SDS011;4706;41.844;26.082;2023-03-15T00:45:56;8.00;;;7.20;;
9334;SDS011;4706;41.844;26.082;2023-03-15T00:48:22;8.73;;;7.67;;
9334;SDS011;4706;41.844;26.082;2023-03-15T00:50:47;7.93;;;7.13;;
9334;SDS011;4706;41.844;26.082;2023-03-15T00:53:13;7.83;;;7.00;;
9334;SDS011;4706;41.844;26.082;2023-03-15T00:55:38;9.70;;;7.80;;
9334;SDS011;4706;41.844;26.082;2023-03-15T00:58:04;7.97;;;7.13;;
9334;SDS011;4706;41.844;26.082;2023-03-15T01:00:29;8.27;;;7.17;;
9334;SDS011;4706;41.844;26.082;2023-03-15T01:02:55;8.67;;;6.90;;
9334;SDS011;4706;41.844;26.082;2023-03-15T01:05:20;9.33;;;6.80;;
9334;SDS011;4706;41.844;26.082;2023-03-15T01:07:47;8.07;;;7.20;;
9334;SDS011;4706;41.844;26.082;2023-03-15T01:10:13;8.30;;;6.77;;
9334;SDS011;4706;41.844;26.082;2023-03-15T01:12:39;8.60;;;7.10;;
9334;SDS011;4706;41.844;26.082;2023-03-15T01:15:06;10.10;;;7.77;;
9334;SDS011;4706;41.844;26.082;2023-03-15T01:17:32;9.77;;;7.93;;
9334;SDS011;4706;41.844;26.082;2023-03-15T01:19:58;8.37;;;7.17;;
9334;SDS011;4706;41.844;26.082;2023-03-15T01:22:25;10.43;;;8.20;;
9334;SDS011;4706;41.844;26.082;2023-03-15T01:24:50;10.40;;;7.80;;
9334;SDS011;4706;41.844;26.082;2023-03-15T01:27:16;8.33;;;7.17;;
9334;SDS011;4706;41.844;26.082;2023-03-15T01:29:41;9.90;;;7.07;;
9334;SDS011;4706;41.844;26.082;2023-03-15T01:32:07;7.40;;;6.70;;
9334;SDS011;4706;41.844;26.082;2023-03-15T01:34:33;7.40;;;6.40;;
9334;SDS011;4706;41.844;26.082;2023-03-15T01:36:59;7.67;;;6.20;;
9334;SDS011;4706;41.844;26.082;2023-03-15T01:39:25;7.07;;;5.77;;
9334;SDS011;4706;41.844;26.082;2023-03-15T01:41:50;8.77;;;6.37;;
9334;SDS011;4706;41.844;26.082;2023-03-15T01:44:16;7.63;;;6.80;;
9334;SDS011;4706;41.844;26.082;2023-03-15T01:46:43;11.23;;;6.80;;
9334;SDS011;4706;41.844;26.082;2023-03-15T01:51:48;7.77;;;7.07;;
9334;SDS011;4706;41.844;26.082;2023-03-15T01:54:26;8.40;;;7.60;;
9334;SDS011;4706;41.844;26.082;2023-03-15T01:57:03;7.27;;;6.57;;
9334;SDS011;4706;41.844;26.082;2023-03-15T01:59:34;7.27;;;6.57;;
9334;SDS011;4706;41.844;26.082;2023-03-15T02:02:03;9.37;;;8.57;;
9334;SDS011;4706;41.844;26.082;2023-03-15T02:04:32;11.03;;;9.27;;
9334;SDS011;4706;41.844;26.082;2023-03-15T02:07:02;10.10;;;8.93;;
9334;SDS011;4706;41.844;26.082;2023-03-15T02:09:43;9.70;;;8.80;;
9334;SDS011;4706;41.844;26.082;2023-03-15T02:12:10;8.37;;;7.40;;
9334;SDS011;4706;41.844;26.082;2023-03-15T02:14:36;8.13;;;7.33;;
9334;SDS011;4706;41.844;26.082;2023-03-15T02:17:02;9.23;;;7.23;;
9334;SDS011;4706;41.844;26.082;2023-03-15T02:24:47;8.37;;;7.10;;
9334;SDS011;4706;41.844;26.082;2023-03-15T02:27:27;8.57;;;7.10;;
9334;SDS011;4706;41.844;26.082;2023-03-15T02:29:56;8.20;;;7.40;;
9334;SDS011;4706;41.844;26.082;2023-03-15T02:32:22;8.77;;;7.80;;
9334;SDS011;4706;41.844;26.082;2023-03-15T02:34:48;9.93;;;8.50;;
9334;SDS011;4706;41.844;26.082;2023-03-15T02:37:13;10.30;;;8.30;;
9334;SDS011;4706;41.844;26.082;2023-03-15T02:39:39;10.37;;;7.97;;
9334;SDS011;4706;41.844;26.082;2023-03-15T02:42:04;10.47;;;8.37;;
9334;SDS011;4706;41.844;26.082;2023-03-15T02:44:37;10.00;;;8.20;;
9334;SDS011;4706;41.844;26.082;2023-03-15T02:47:13;7.90;;;7.10;;
9334;SDS011;4706;41.844;26.082;2023-03-15T02:49:54;8.97;;;7.10;;
9334;SDS011;4706;41.844;26.082;2023-03-15T02:52:20;8.63;;;7.53;;
9334;SDS011;4706;41.844;26.082;2023-03-15T02:54:47;11.63;;;8.50;;
9334;SDS011;4706;41.844;26.082;2023-03-15T02:57:13;8.00;;;7.20;;
9334;SDS011;4706;41.844;26.082;2023-03-15T02:59:39;8.13;;;7.33;;
9334;SDS011;4706;41.844;26.082;2023-03-15T03:02:07;8.63;;;7.83;;
9334;SDS011;4706;41.844;26.082;2023-03-15T03:04:36;7.70;;;6.90;;
9334;SDS011;4706;41.844;26.082;2023-03-15T03:07:02;9.63;;;8.70;;
9334;SDS011;4706;41.844;26.082;2023-03-15T03:09:28;9.30;;;8.20;;
9334;SDS011;4706;41.844;26.082;2023-03-15T03:11:54;9.00;;;8.07;;
9334;SDS011;4706;41.844;26.082;2023-03-15T03:14:19;9.10;;;8.17;;
9334;SDS011;4706;41.844;26.082;2023-03-15T03:16:48;9.87;;;8.83;;
9334;SDS011;4706;41.844;26.082;2023-03-15T03:19:14;10.47;;;9.43;;
9334;SDS011;4706;41.844;26.082;2023-03-15T03:21:39;22.10;;;15.63;;
9334;SDS011;4706;41.844;26.082;2023-03-15T03:24:07;14.10;;;12.60;;
9334;SDS011;4706;41.844;26.082;2023-03-15T03:26:33;14.47;;;12.13;;
9334;SDS011;4706;41.844;26.082;2023-03-15T03:28:59;11.93;;;10.77;;
9334;SDS011;4706;41.844;26.082;2023-03-15T03:31:25;10.77;;;9.67;;
9334;SDS011;4706;41.844;26.082;2023-03-15T03:33:51;11.83;;;10.10;;
9334;SDS011;4706;41.844;26.082;2023-03-15T03:36:18;10.30;;;9.30;;
9334;SDS011;4706;41.844;26.082;2023-03-15T03:38:44;10.67;;;9.60;;
9334;SDS011;4706;41.844;26.082;2023-03-15T03:41:10;9.70;;;8.70;;
9334;SDS011;4706;41.844;26.082;2023-03-15T03:43:38;8.70;;;7.80;;
9334;SDS011;4706;41.844;26.082;2023-03-15T03:46:04;9.27;;;8.37;;
9334;SDS011;4706;41.844;26.082;2023-03-15T03:48:30;10.00;;;9.00;;
9334;SDS011;4706;41.844;26.082;2023-03-15T03:50:56;11.13;;;10.03;;
9334;SDS011;4706;41.844;26.082;2023-03-15T03:53:23;11.87;;;9.83;;
9334;SDS011;4706;41.844;26.082;2023-03-15T03:55:48;11.30;;;10.10;;
9334;SDS011;4706;41.844;26.082;2023-03-15T03:58:14;10.97;;;9.77;;
9334;SDS011;4706;41.844;26.082;2023-03-15T04:00:39;10.67;;;9.67;;
9334;SDS011;4706;41.844;26.082;2023-03-15T04:03:06;11.13;;;10.03;;
9334;SDS011;4706;41.844;26.082;2023-03-15T04:05:31;11.30;;;10.17;;
9334;SDS011;4706;41.844;26.082;2023-03-15T04:07:57;12.33;;;10.93;;
9334;SDS011;4706;41.844;26.082;2023-03-15T04:10:23;13.77;;;10.73;;
9334;SDS011;4706;41.844;26.082;2023-03-15T04:12:54;12.57;;;10.30;;
9334;SDS011;4706;41.844;26.082;2023-03-15T04:15:22;10.37;;;9.30;;
9334;SDS011;4706;41.844;26.082;2023-03-15T04:17:48;12.83;;;11.37;;
9334;SDS011;4706;41.844;26.082;2023-03-15T04:20:24;21.90;;;15.83;;
9334;SDS011;4706;41.844;26.082;2023-03-15T04:22:51;18.27;;;12.57;;
9334;SDS011;4706;41.844;26.082;2023-03-15T04:25:17;10.93;;;9.87;;
9334;SDS011;4706;41.844;26.082;2023-03-15T04:27:44;10.10;;;9.03;;
9334;SDS011;4706;41.844;26.082;2023-03-15T04:30:10;11.07;;;9.47;;
9334;SDS011;4706;41.844;26.082;2023-03-15T04:32:36;10.50;;;9.10;;
9334;SDS011;4706;41.844;26.082;2023-03-15T04:35:03;10.77;;;9.67;;
9334;SDS011;4706;41.844;26.082;2023-03-15T04:37:29;10.10;;;8.57;;
9334;SDS011;4706;41.844;26.082;2023-03-15T04:39:56;11.63;;;10.10;;
9334;SDS011;4706;41.844;26.082;2023-03-15T04:42:22;16.27;;;11.47;;
9334;SDS011;4706;41.844;26.082;2023-03-15T04:44:47;15.57;;;13.50;;
9334;SDS011;4706;41.844;26.082;2023-03-15T04:47:12;18.67;;;15.10;;
9334;SDS011;4706;41.844;26.082;2023-03-15T04:49:38;17.13;;;14.23;;
9334;SDS011;4706;41.844;26.082;2023-03-15T04:52:04;20.80;;;15.43;;
9334;SDS011;4706;41.844;26.082;2023-03-15T04:54:29;18.93;;;16.20;;
9334;SDS011;4706;41.844;26.082;2023-03-15T04:56:55;15.10;;;13.37;;
9334;SDS011;4706;41.844;26.082;2023-03-15T04:59:20;14.87;;;13.37;;
9334;SDS011;4706;41.844;26.082;2023-03-15T05:01:46;20.53;;;15.63;;
9334;SDS011;4706;41.844;26.082;2023-03-15T05:04:11;17.87;;;14.27;;
9334;SDS011;4706;41.844;26.082;2023-03-15T05:06:37;16.10;;;13.97;;
9334;SDS011;4706;41.844;26.082;2023-03-15T05:09:03;12.00;;;10.80;;
9334;SDS011;4706;41.844;26.082;2023-03-15T05:11:29;12.50;;;10.00;;
9334;SDS011;4706;41.844;26.082;2023-03-15T05:13:55;12.20;;;9.30;;
9334;SDS011;4706;41.844;26.082;2023-03-15T05:16:20;11.37;;;10.23;;
9334;SDS011;4706;41.844;26.082;2023-03-15T05:18:46;11.63;;;10.17;;
9334;SDS011;4706;41.844;26.082;2023-03-15T05:21:11;11.00;;;9.40;;
9334;SDS011;4706;41.844;26.082;2023-03-15T05:23:37;11.67;;;9.97;;
9334;SDS011;4706;41.844;26.082;2023-03-15T05:26:03;14.60;;;13.07;;
9334;SDS011;4706;41.844;26.082;2023-03-15T05:28:29;13.03;;;10.90;;
9334;SDS011;4706;41.844;26.082;2023-03-15T05:30:55;11.27;;;10.10;;
9334;SDS011;4706;41.844;26.082;2023-03-15T05:33:21;11.50;;;9.80;;
9334;SDS011;4706;41.844;26.082;2023-03-15T05:35:47;12.60;;;10.13;;
9334;SDS011;4706;41.844;26.082;2023-03-15T05:38:12;11.10;;;10.00;;
9334;SDS011;4706;41.844;26.082;2023-03-15T05:40:42;12.13;;;10.73;;
9334;SDS011;4706;41.844;26.082;2023-03-15T05:43:09;14.10;;;11.30;;
9334;SDS011;4706;41.844;26.082;2023-03-15T05:45:34;14.27;;;11.60;;
9334;SDS011;4706;41.844;26.082;2023-03-15T05:48:00;13.70;;;12.30;;
9334;SDS011;4706;41.844;26.082;2023-03-15T05:50:26;12.90;;;11.67;;
9334;SDS011;4706;41.844;26.082;2023-03-15T05:52:53;14.77;;;13.27;;
9334;SDS011;4706;41.844;26.082;2023-03-15T05:55:19;20.83;;;13.43;;
9334;SDS011;4706;41.844;26.082;2023-03-15T05:57:45;13.80;;;12.43;;
9334;SDS011;4706;41.844;26.082;2023-03-15T06:00:10;16.93;;;13.73;;
9334;SDS011;4706;41.844;26.082;2023-03-15T06:02:39;16.53;;;12.87;;
9334;SDS011;4706;41.844;26.082;2023-03-15T06:05:08;20.63;;;15.13;;
9334;SDS011;4706;41.844;26.082;2023-03-15T06:07:34;14.77;;;12.90;;
9334;SDS011;4706;41.844;26.082;2023-03-15T06:09:59;17.37;;;12.53;;
9334;SDS011;4706;41.844;26.082;2023-03-15T06:12:25;14.07;;;12.37;;
9334;SDS011;4706;41.844;26.082;2023-03-15T06:14:51;13.87;;;12.37;;
9334;SDS011;4706;41.844;26.082;2023-03-15T06:17:16;18.20;;;13.67;;
9334;SDS011;4706;41.844;26.082;2023-03-15T06:19:41;20.77;;;16.43;;
9334;SDS011;4706;41.844;26.082;2023-03-15T06:22:07;19.33;;;15.53;;
9334;SDS011;4706;41.844;26.082;2023-03-15T06:24:33;15.17;;;13.57;;
9334;SDS011;4706;41.844;26.082;2023-03-15T06:26:58;15.50;;;12.47;;
9334;SDS011;4706;41.844;26.082;2023-03-15T06:29:24;15.23;;;13.10;;
9334;SDS011;4706;41.844;26.082;2023-03-15T06:31:49;17.43;;;13.80;;
9334;SDS011;4706;41.844;26.082;2023-03-15T06:34:15;17.67;;;13.27;;
9334;SDS011;4706;41.844;26.082;2023-03-15T06:36:41;17.83;;;14.57;;
9334;SDS011;4706;41.844;26.082;2023-03-15T06:39:07;21.53;;;15.67;;
9334;SDS011;4706;41.844;26.082;2023-03-15T06:41:35;25.13;;;14.40;;
9334;SDS011;4706;41.844;26.082;2023-03-15T06:44:00;15.13;;;13.57;;
9334;SDS011;4706;41.844;26.082;2023-03-15T06:46:26;16.10;;;13.63;;
9334;SDS011;4706;41.844;26.082;2023-03-15T06:48:51;17.20;;;14.00;;
9334;SDS011;4706;41.844;26.082;2023-03-15T06:51:17;17.27;;;14.37;;
9334;SDS011;4706;41.844;26.082;2023-03-15T06:53:42;17.30;;;15.47;;
9334;SDS011;4706;41.844;26.082;2023-03-15T06:56:08;19.93;;;14.87;;
9334;SDS011;4706;41.844;26.082;2023-03-15T06:58:33;21.53;;;15.87;;
9334;SDS011;4706;41.844;26.082;2023-03-15T07:00:59;16.33;;;13.13;;
9334;SDS011;4706;41.844;26.082;2023-03-15T07:03:25;18.47;;;13.93;;
9334;SDS011;4706;41.844;26.082;2023-03-15T07:05:50;16.57;;;14.50;;
9334;SDS011;4706;41.844;26.082;2023-03-15T07:08:18;16.40;;;14.67;;
9334;SDS011;4706;41.844;26.082;2023-03-15T07:10:47;17.10;;;14.53;;
9334;SDS011;4706;41.844;26.082;2023-03-15T07:13:14;19.70;;;16.27;;
9334;SDS011;4706;41.844;26.082;2023-03-15T07:15:40;16.73;;;15.00;;
9334;SDS011;4706;41.844;26.082;2023-03-15T07:18:06;19.83;;;16.30;;
9334;SDS011;4706;41.844;26.082;2023-03-15T07:20:32;19.73;;;16.33;;
9334;SDS011;4706;41.844;26.082;2023-03-15T07:22:58;19.13;;;15.57;;
9334;SDS011;4706;41.844;26.082;2023-03-15T07:25:23;20.98;;;17.02;;
9334;SDS011;4706;41.844;26.082;2023-03-15T07:27:50;20.50;;;16.73;;
9334;SDS011;4706;41.844;26.082;2023-03-15T07:30:17;20.75;;;16.80;;
9334;SDS011;4706;41.844;26.082;2023-03-15T07:32:43;19.58;;;16.50;;
9334;SDS011;4706;41.844;26.082;2023-03-15T07:35:09;20.05;;;17.73;;
9334;SDS011;4706;41.844;26.082;2023-03-15T07:37:34;23.63;;;17.05;;
9334;SDS011;4706;41.844;26.082;2023-03-15T07:40:00;21.02;;;17.63;;
9334;SDS011;4706;41.844;26.082;2023-03-15T07:42:34;19.95;;;17.30;;
9334;SDS011;4706;41.844;26.082;2023-03-15T07:45:00;19.77;;;16.25;;
9334;SDS011;4706;41.844;26.082;2023-03-15T07:47:26;21.75;;;16.88;;
9334;SDS011;4706;41.844;26.082;2023-03-15T07:49:52;22.35;;;16.55;;
9334;SDS011;4706;41.844;26.082;2023-03-15T07:52:18;23.65;;;16.33;;
9334;SDS011;4706;41.844;26.082;2023-03-15T07:54:45;18.42;;;14.77;;
9334;SDS011;4706;41.844;26.082;2023-03-15T07:57:11;17.35;;;15.05;;
9334;SDS011;4706;41.844;26.082;2023-03-15T07:59:36;21.30;;;16.45;;
9334;SDS011;4706;41.844;26.082;2023-03-15T08:02:02;20.20;;;14.60;;
9334;SDS011;4706;41.844;26.082;2023-03-15T08:04:27;18.58;;;15.35;;
9334;SDS011;4706;41.844;26.082;2023-03-15T08:06:53;22.85;;;17.67;;
9334;SDS011;4706;41.844;26.082;2023-03-15T08:09:18;20.17;;;14.43;;
9334;SDS011;4706;41.844;26.082;2023-03-15T08:11:44;17.88;;;14.35;;
9334;SDS011;4706;41.844;26.082;2023-03-15T08:14:09;23.35;;;15.50;;
9334;SDS011;4706;41.844;26.082;2023-03-15T08:16:35;16.63;;;14.27;;
9334;SDS011;4706;41.844;26.082;2023-03-15T08:19:00;18.50;;;15.27;;
9334;SDS011;4706;41.844;26.082;2023-03-15T08:21:26;20.35;;;15.05;;
9334;SDS011;4706;41.844;26.082;2023-03-15T08:23:51;19.83;;;15.00;;
9334;SDS011;4706;41.844;26.082;2023-03-15T08:26:17;21.60;;;16.33;;
9334;SDS011;4706;41.844;26.082;2023-03-15T08:28:42;17.60;;;15.70;;
9334;SDS011;4706;41.844;26.082;2023-03-15T08:31:08;17.65;;;15.15;;
9334;SDS011;4706;41.844;26.082;2023-03-15T08:33:34;21.08;;;15.38;;
9334;SDS011;4706;41.844;26.082;2023-03-15T08:35:59;18.27;;;15.35;;
9334;SDS011;4706;41.844;26.082;2023-03-15T08:38:25;20.02;;;16.20;;
9334;SDS011;4706;41.844;26.082;2023-03-15T08:40:55;20.35;;;16.20;;
9334;SDS011;4706;41.844;26.082;2023-03-15T08:43:21;17.05;;;14.57;;
9334;SDS011;4706;41.844;26.082;2023-03-15T08:45:47;18.40;;;14.95;;
9334;SDS011;4706;41.844;26.082;2023-03-15T08:48:14;19.20;;;15.95;;
9334;SDS011;4706;41.844;26.082;2023-03-15T08:50:40;16.60;;;14.60;;
9334;SDS011;4706;41.844;26.082;2023-03-15T08:53:05;17.38;;;14.25;;
9334;SDS011;4706;41.844;26.082;2023-03-15T08:55:32;19.55;;;13.93;;
9334;SDS011;4706;41.844;26.082;2023-03-15T08:57:57;22.13;;;15.25;;
9334;SDS011;4706;41.844;26.082;2023-03-15T09:00:25;16.58;;;13.88;;
9334;SDS011;4706;41.844;26.082;2023-03-15T09:02:51;16.23;;;12.60;;
9334;SDS011;4706;41.844;26.082;2023-03-15T09:05:18;17.35;;;12.80;;
9334;SDS011;4706;41.844;26.082;2023-03-15T09:07:47;13.75;;;11.82;;
9334;SDS011;4706;41.844;26.082;2023-03-15T09:12:41;13.75;;;11.85;;
9334;SDS011;4706;41.844;26.082;2023-03-15T09:15:07;13.23;;;11.27;;
9334;SDS011;4706;41.844;26.082;2023-03-15T09:17:33;16.08;;;12.35;;
9334;SDS011;4706;41.844;26.082;2023-03-15T09:19:59;15.45;;;12.70;;
9334;SDS011;4706;41.844;26.082;2023-03-15T09:22:24;13.25;;;11.77;;
9334;SDS011;4706;41.844;26.082;2023-03-15T09:24:50;13.73;;;11.95;;
9334;SDS011;4706;41.844;26.082;2023-03-15T09:27:16;13.35;;;11.50;;
9334;SDS011;4706;41.844;26.082;2023-03-15T09:29:42;15.05;;;11.88;;
9334;SDS011;4706;41.844;26.082;2023-03-15T09:32:08;13.27;;;11.77;;
9334;SDS011;4706;41.844;26.082;2023-03-15T09:34:35;14.02;;;12.23;;
9334;SDS011;4706;41.844;26.082;2023-03-15T09:37:01;15.18;;;10.90;;
9334;SDS011;4706;41.844;26.082;2023-03-15T09:39:27;15.40;;;13.63;;
9334;SDS011;4706;41.844;26.082;2023-03-15T09:41:53;11.60;;;10.27;;
9334;SDS011;4706;41.844;26.082;2023-03-15T09:47:04;14.77;;;10.27;;
9334;SDS011;4706;41.844;26.082;2023-03-15T09:55:05;9.88;;;8.88;;
9334;SDS011;4706;41.844;26.082;2023-03-15T09:57:40;13.43;;;9.82;;
9334;SDS011;4706;41.844;26.082;2023-03-15T10:00:12;12.23;;;9.30;;
9334;SDS011;4706;41.844;26.082;2023-03-15T10:02:42;12.07;;;9.77;;
9334;SDS011;4706;41.844;26.082;2023-03-15T10:05:18;14.35;;;10.50;;
9334;SDS011;4706;41.844;26.082;2023-03-15T10:07:46;12.48;;;9.70;;
9334;SDS011;4706;41.844;26.082;2023-03-15T10:10:18;10.57;;;9.00;;
9334;SDS011;4706;41.844;26.082;2023-03-15T10:12:50;10.15;;;8.88;;
9334;SDS011;4706;41.844;26.082;2023-03-15T10:20:48;11.98;;;9.98;;
9334;SDS011;4706;41.844;26.082;2023-03-15T10:23:36;11.27;;;10.13;;
9334;SDS011;4706;41.844;26.082;2023-03-15T10:26:07;9.70;;;8.68;;
9334;SDS011;4706;41.844;26.082;2023-03-15T10:28:38;12.88;;;8.90;;
9334;SDS011;4706;41.844;26.082;2023-03-15T10:31:14;11.02;;;9.23;;
9334;SDS011;4706;41.844;26.082;2023-03-15T10:33:44;9.65;;;8.65;;
9334;SDS011;4706;41.844;26.082;2023-03-15T10:36:16;11.73;;;9.57;;
9334;SDS011;4706;41.844;26.082;2023-03-15T10:38:44;11.82;;;9.52;;
9334;SDS011;4706;41.844;26.082;2023-03-15T10:41:13;13.70;;;9.98;;
9334;SDS011;4706;41.844;26.082;2023-03-15T10:44:25;14.55;;;9.52;;
9334;SDS011;4706;41.844;26.082;2023-03-15T10:46:58;10.88;;;8.77;;
9334;SDS011;4706;41.844;26.082;2023-03-15T10:49:40;12.35;;;10.05;;
9334;SDS011;4706;41.844;26.082;2023-03-15T10:54:55;11.00;;;8.13;;
9334;SDS011;4706;41.844;26.082;2023-03-15T10:57:24;8.88;;;7.63;;
9334;SDS011;4706;41.844;26.082;2023-03-15T11:00:03;8.98;;;7.50;;
9334;SDS011;4706;41.844;26.082;2023-03-15T11:02:50;8.20;;;7.18;;
9334;SDS011;4706;41.844;26.082;2023-03-15T11:05:28;9.07;;;7.22;;
9334;SDS011;4706;41.844;26.082;2023-03-15T11:08:22;11.43;;;7.80;;
9334;SDS011;4706;41.844;26.082;2023-03-15T11:10:56;9.73;;;7.53;;
9334;SDS011;4706;41.844;26.082;2023-03-15T11:13:33;9.13;;;7.40;;
9334;SDS011;4706;41.844;26.082;2023-03-15T11:21:21;9.32;;;8.32;;
9334;SDS011;4706;41.844;26.082;2023-03-15T11:23:53;9.75;;;8.23;;
9334;SDS011;4706;41.844;26.082;2023-03-15T11:26:21;11.55;;;8.20;;
9334;SDS011;4706;41.844;26.082;2023-03-15T11:28:52;10.73;;;7.70;;
9334;SDS011;4706;41.844;26.082;2023-03-15T11:31:23;8.98;;;7.20;;
9334;SDS011;4706;41.844;26.082;2023-03-15T11:36:51;10.30;;;7.97;;
9334;SDS011;4706;41.844;26.082;2023-03-15T11:39:25;9.40;;;7.40;;
9334;SDS011;4706;41.844;26.082;2023-03-15T11:42:01;7.57;;;6.78;;
9334;SDS011;4706;41.844;26.082;2023-03-15T11:52:14;9.27;;;6.70;;
9334;SDS011;4706;41.844;26.082;2023-03-15T11:54:40;8.98;;;7.22;;
9334;SDS011;4706;41.844;26.082;2023-03-15T11:57:41;9.27;;;7.38;;
9334;SDS011;4706;41.844;26.082;2023-03-15T12:02:49;9.27;;;7.45;;
9334;SDS011;4706;41.844;26.082;2023-03-15T12:10:59;7.03;;;6.32;;
9334;SDS011;4706;41.844;26.082;2023-03-15T12:13:30;8.00;;;5.60;;
9334;SDS011;4706;41.844;26.082;2023-03-15T12:15:56;6.70;;;5.60;;
9334;SDS011;4706;41.844;26.082;2023-03-15T12:18:30;5.47;;;4.97;;
9334;SDS011;4706;41.844;26.082;2023-03-15T12:21:22;9.13;;;5.97;;
9334;SDS011;4706;41.844;26.082;2023-03-15T12:24:03;7.15;;;5.80;;
9334;SDS011;4706;41.844;26.082;2023-03-15T12:29:19;7.00;;;5.97;;
9334;SDS011;4706;41.844;26.082;2023-03-15T12:34:33;10.70;;;7.68;;
9334;SDS011;4706;41.844;26.082;2023-03-15T12:37:24;8.27;;;6.30;;
9334;SDS011;4706;41.844;26.082;2023-03-15T12:53:28;3.88;;;2.63;;
9334;SDS011;4706;41.844;26.082;2023-03-15T12:58:41;2.35;;;1.90;;
9334;SDS011;4706;41.844;26.082;2023-03-15T13:01:10;3.08;;;2.22;;
9334;SDS011;4706;41.844;26.082;2023-03-15T13:03:40;2.45;;;2.08;;
9334;SDS011;4706;41.844;26.082;2023-03-15T13:06:18;2.85;;;2.30;;
9334;SDS011;4706;41.844;26.082;2023-03-15T13:17:39;3.60;;;2.30;;
9334;SDS011;4706;41.844;26.082;2023-03-15T13:23:12;3.42;;;2.50;;
9334;SDS011;4706;41.844;26.082;2023-03-15T13:25:57;3.58;;;2.10;;
9334;SDS011;4706;41.844;26.082;2023-03-15T13:28:31;2.40;;;2.20;;
9334;SDS011;4706;41.844;26.082;2023-03-15T13:31:09;3.85;;;2.33;;
9334;SDS011;4706;41.844;26.082;2023-03-15T13:33:41;2.35;;;2.15;;
9334;SDS011;4706;41.844;26.082;2023-03-15T13:36:12;2.17;;;1.98;;
9334;SDS011;4706;41.844;26.082;2023-03-15T13:41:18;3.05;;;2.15;;
9334;SDS011;4706;41.844;26.082;2023-03-15T13:43:51;3.45;;;2.15;;
9334;SDS011;4706;41.844;26.082;2023-03-15T13:46:20;5.40;;;3.50;;
9334;SDS011;4706;41.844;26.082;2023-03-15T13:48:48;4.88;;;3.58;;
9334;SDS011;4706;41.844;26.082;2023-03-15T13:51:28;2.78;;;2.03;;
9334;SDS011;4706;41.844;26.082;2023-03-15T13:53:59;2.85;;;2.65;;
9334;SDS011;4706;41.844;26.082;2023-03-15T13:56:29;3.17;;;2.60;;
9334;SDS011;4706;41.844;26.082;2023-03-15T13:58:57;5.13;;;2.47;;
9334;SDS011;4706;41.844;26.082;2023-03-15T14:01:23;5.68;;;4.13;;
9334;SDS011;4706;41.844;26.082;2023-03-15T14:03:53;2.95;;;2.17;;
9334;SDS011;4706;41.844;26.082;2023-03-15T14:06:23;3.78;;;1.83;;
9334;SDS011;4706;41.844;26.082;2023-03-15T14:08:51;2.53;;;1.88;;
9334;SDS011;4706;41.844;26.082;2023-03-15T14:13:58;3.60;;;2.13;;
9334;SDS011;4706;41.844;26.082;2023-03-15T14:16:31;4.63;;;3.08;;
9334;SDS011;4706;41.844;26.082;2023-03-15T14:21:51;4.10;;;2.88;;
9334;SDS011;4706;41.844;26.082;2023-03-15T14:24:29;2.15;;;1.88;;
9334;SDS011;4706;41.844;26.082;2023-03-15T14:26:59;2.75;;;2.33;;
9334;SDS011;4706;41.844;26.082;2023-03-15T14:32:01;2.97;;;2.25;;
9334;SDS011;4706;41.844;26.082;2023-03-15T14:37:22;3.08;;;2.00;;
9334;SDS011;4706;41.844;26.082;2023-03-15T14:40:02;2.88;;;2.13;;
9334;SDS011;4706;41.844;26.082;2023-03-15T14:42:45;3.40;;;2.13;;
9334;SDS011;4706;41.844;26.082;2023-03-15T14:45:13;2.78;;;2.47;;
9334;SDS011;4706;41.844;26.082;2023-03-15T14:47:43;3.22;;;2.20;;
9334;SDS011;4706;41.844;26.082;2023-03-15T14:50:15;9.15;;;3.45;;
9334;SDS011;4706;41.844;26.082;2023-03-15T14:52:44;3.42;;;2.15;;
9334;SDS011;4706;41.844;26.082;2023-03-15T14:55:15;2.55;;;2.33;;
9334;SDS011;4706;41.844;26.082;2023-03-15T14:57:43;4.10;;;3.70;;
9334;SDS011;4706;41.844;26.082;2023-03-15T15:00:11;4.28;;;3.33;;
9334;SDS011;4706;41.844;26.082;2023-03-15T15:02:41;8.07;;;5.20;;
9334;SDS011;4706;41.844;26.082;2023-03-15T15:05:19;4.45;;;3.40;;
9334;SDS011;4706;41.844;26.082;2023-03-15T15:10:27;5.97;;;2.80;;
9334;SDS011;4706;41.844;26.082;2023-03-15T15:12:53;2.67;;;2.35;;
9334;SDS011;4706;41.844;26.082;2023-03-15T15:15:20;3.03;;;2.65;;
9334;SDS011;4706;41.844;26.082;2023-03-15T15:17:46;7.20;;;3.92;;
9334;SDS011;4706;41.844;26.082;2023-03-15T15:20:13;7.43;;;5.70;;
9334;SDS011;4706;41.844;26.082;2023-03-15T15:22:42;6.28;;;3.20;;
9334;SDS011;4706;41.844;26.082;2023-03-15T15:25:12;4.95;;;3.10;;
9334;SDS011;4706;41.844;26.082;2023-03-15T15:27:38;4.72;;;3.90;;
9334;SDS011;4706;41.844;26.082;2023-03-15T15:30:04;4.18;;;3.80;;
9334;SDS011;4706;41.844;26.082;2023-03-15T15:32:30;3.97;;;3.58;;
9334;SDS011;4706;41.844;26.082;2023-03-15T15:34:58;4.13;;;3.65;;
9334;SDS011;4706;41.844;26.082;2023-03-15T15:37:24;4.90;;;3.78;;
9334;SDS011;4706;41.844;26.082;2023-03-15T15:39:50;4.72;;;4.32;;
9334;SDS011;4706;41.844;26.082;2023-03-15T15:42:16;7.18;;;5.72;;
9334;SDS011;4706;41.844;26.082;2023-03-15T15:44:41;5.15;;;4.72;;
9334;SDS011;4706;41.844;26.082;2023-03-15T15:47:09;5.32;;;4.60;;
9334;SDS011;4706;41.844;26.082;2023-03-15T15:49:35;6.03;;;5.43;;
9334;SDS011;4706;41.844;26.082;2023-03-15T15:52:01;5.68;;;4.55;;
9334;SDS011;4706;41.844;26.082;2023-03-15T15:54:27;5.53;;;4.10;;
9334;SDS011;4706;41.844;26.082;2023-03-15T15:56:56;5.50;;;4.97;;
9334;SDS011;4706;41.844;26.082;2023-03-15T15:59:24;8.43;;;5.20;;
9334;SDS011;4706;41.844;26.082;2023-03-15T16:01:50;5.15;;;4.43;;
9334;SDS011;4706;41.844;26.082;2023-03-15T16:04:16;5.50;;;4.72;;
9334;SDS011;4706;41.844;26.082;2023-03-15T16:06:43;7.00;;;6.05;;
9334;SDS011;4706;41.844;26.082;2023-03-15T16:09:13;6.18;;;5.57;;
9334;SDS011;4706;41.844;26.082;2023-03-15T16:11:39;6.82;;;6.13;;
9334;SDS011;4706;41.844;26.082;2023-03-15T16:14:05;7.55;;;5.97;;
9334;SDS011;4706;41.844;26.082;2023-03-15T16:16:30;11.45;;;7.43;;
9334;SDS011;4706;41.844;26.082;2023-03-15T16:18:56;10.77;;;7.78;;
9334;SDS011;4706;41.844;26.082;2023-03-15T16:21:29;7.75;;;6.80;;
9334;SDS011;4706;41.844;26.082;2023-03-15T16:23:59;7.57;;;6.57;;
9334;SDS011;4706;41.844;26.082;2023-03-15T16:26:34;10.48;;;7.43;;
9334;SDS011;4706;41.844;26.082;2023-03-15T16:29:07;7.15;;;6.53;;
9334;SDS011;4706;41.844;26.082;2023-03-15T16:31:37;6.75;;;6.15;;
9334;SDS011;4706;41.844;26.082;2023-03-15T16:34:07;6.32;;;5.60;;
9334;SDS011;4706;41.844;26.082;2023-03-15T16:36:35;5.32;;;4.88;;